Time;durP1;ratioP1;P1;durP2;ratioP2;P2;SDS_P1;SDS_P2;PMS_P1;PMS_P2;Temp;Humidity;BMP_temperature;BMP_pressure;BME280_temperature;BME280_humidity;BME280_pressure;Samples;Min_cycle;Max_cycle;Signal;HPM_P1;HPM_P2
2022/09/26 00:01:39;;;;;;;9.45;6.32;;;;;;;10.28;91.44;100926.06;5079790;28;20050;-59
2022/09/26 00:04:21;;;;;;;10.18;6.43;;;;;;;10.29;90.79;100919.75;5082683;28;20056;-58
2022/09/26 00:06:47;;;;;;;9.95;6.18;;;;;;;10.27;90.57;100918.25;5073674;28;20097;-60
2022/09/26 00:09:14;;;;;;;9.40;6.30;;;;;;;10.27;91.33;100916.41;5073510;28;20033;-59
2022/09/26 00:11:40;;;;;;;10.60;6.43;;;;;;;10.26;91.78;100912.09;5088482;28;20538;-57
2022/09/26 00:14:10;;;;;;;10.70;6.47;;;;;;;10.25;91.61;100901.69;5075415;28;20032;-59
2022/09/26 00:16:37;;;;;;;9.88;6.28;;;;;;;10.24;91.80;100903.50;5074215;28;20030;-56
2022/09/26 00:19:03;;;;;;;8.02;6.20;;;;;;;10.25;91.57;100899.84;5073195;28;20039;-58
2022/09/26 00:21:29;;;;;;;10.25;6.60;;;;;;;10.25;91.62;100889.25;5080470;28;20441;-59
2022/09/26 00:23:55;;;;;;;9.68;6.53;;;;;;;10.24;91.93;100890.25;5077480;28;20027;-57
2022/09/26 00:26:22;;;;;;;10.88;6.43;;;;;;;10.27;91.58;100887.25;5076018;28;20028;-56
2022/09/26 00:28:48;;;;;;;8.10;6.22;;;;;;;10.25;92.06;100883.94;5081452;28;20050;-55
2022/09/26 00:31:21;;;;;;;8.82;6.07;;;;;;;10.24;92.34;100877.00;5072529;28;20037;-59
2022/09/26 00:33:47;;;;;;;8.43;6.22;;;;;;;10.23;92.16;100872.69;5066653;28;20127;-56
2022/09/26 00:36:13;;;;;;;11.15;6.72;;;;;;;10.23;91.72;100875.34;5075252;28;20158;-56
2022/09/26 00:38:39;;;;;;;11.93;6.35;;;;;;;10.21;91.95;100867.53;5065704;28;20503;-57
2022/09/26 00:41:05;;;;;;;11.18;6.90;;;;;;;10.22;91.74;100865.72;5072237;28;20072;-59
2022/09/26 00:43:43;;;;;;;12.40;7.10;;;;;;;10.25;92.82;100865.41;5078326;28;20032;-57
2022/09/26 00:46:38;;;;;;;11.27;6.85;;;;;;;10.28;91.93;100857.16;5075131;28;20024;-56
2022/09/26 00:49:17;;;;;;;11.00;7.10;;;;;;;10.26;92.33;100858.28;5046850;28;20102;-56
2022/09/26 00:51:46;;;;;;;14.10;7.13;;;;;;;10.26;92.06;100853.00;5076860;28;20071;-56
2022/09/26 00:54:15;;;;;;;12.52;6.88;;;;;;;10.25;92.60;100846.03;5073325;28;20486;-56
2022/09/26 00:56:44;;;;;;;10.43;6.95;;;;;;;10.27;91.73;100850.16;5076634;28;20077;-57
2022/09/26 00:59:32;;;;;;;10.85;6.75;;;;;;;10.26;91.68;100827.31;5079185;28;20119;-56
2022/09/26 01:01:59;;;;;;;12.63;6.50;;;;;;;10.29;91.73;100834.94;5074234;28;20036;-58
2022/09/26 01:04:27;;;;;;;11.13;6.07;;;;;;;10.22;91.68;100820.69;5077935;28;20039;-56
2022/09/26 01:06:55;;;;;;;10.45;6.18;;;;;;;10.30;91.57;100823.34;5070449;28;20031;-56
2022/09/26 01:09:20;;;;;;;8.07;5.80;;;;;;;10.33;91.46;100817.75;5076417;28;20047;-58
2022/09/26 01:11:46;;;;;;;9.27;5.63;;;;;;;10.34;91.27;100814.09;5098390;28;20035;-57
2022/09/26 01:14:12;;;;;;;12.13;5.85;;;;;;;10.36;91.77;100805.97;5072925;28;20056;-57
2022/09/26 01:16:40;;;;;;;8.15;5.72;;;;;;;10.34;91.43;100802.66;5064678;28;20036;-59
2022/09/26 01:19:19;;;;;;;11.25;5.80;;;;;;;10.39;91.33;100791.56;5068990;28;20089;-58
2022/09/26 01:22:15;;;;;;;10.48;5.80;;;;;;;10.40;90.76;100794.06;5080470;28;20033;-56
2022/09/26 01:25:00;;;;;;;10.60;5.30;;;;;;;10.42;90.43;100783.31;5077337;28;20509;-56
2022/09/26 01:27:42;;;;;;;9.93;5.28;;;;;;;10.49;90.34;100777.22;5078835;28;20028;-58
2022/09/26 01:30:18;;;;;;;8.60;5.50;;;;;;;10.45;89.91;100772.38;5075810;28;20040;-57
2022/09/26 01:33:08;;;;;;;11.23;5.50;;;;;;;10.43;90.29;100761.97;5077862;28;20040;-56
2022/09/26 01:35:53;;;;;;;10.30;5.15;;;;;;;10.45;90.42;100759.13;5072100;28;20036;-59
2022/09/26 01:38:25;;;;;;;10.20;5.13;;;;;;;10.43;90.09;100753.16;5073140;28;20044;-56
2022/09/26 01:41:25;;;;;;;11.13;5.32;;;;;;;10.56;90.29;100750.06;5075759;28;20408;-56
2022/09/26 01:44:14;;;;;;;10.32;4.85;;;;;;;10.48;89.71;100745.56;5073419;28;20038;-57
2022/09/26 01:47:08;;;;;;;10.70;5.03;;;;;;;10.48;90.17;100734.97;5083499;28;20054;-58
2022/09/26 01:49:39;;;;;;;14.55;4.88;;;;;;;10.44;89.10;100728.31;5077424;28;20112;-56
2022/09/26 01:52:04;;;;;;;11.27;4.85;;;;;;;10.44;89.47;100725.66;5077439;28;20016;-58
2022/09/26 01:54:38;;;;;;;10.20;4.70;;;;;;;10.41;90.07;100716.19;5071223;28;20043;-56
2022/09/26 01:57:09;;;;;;;10.68;4.78;;;;;;;10.39;89.61;100717.34;5076687;28;20039;-57
2022/09/26 01:59:41;;;;;;;11.07;4.57;;;;;;;10.38;89.47;100711.22;5075129;28;20036;-57
2022/09/26 02:02:24;;;;;;;6.78;4.60;;;;;;;10.41;89.30;100702.13;5077114;28;20055;-57
2022/09/26 02:04:56;;;;;;;10.73;4.85;;;;;;;10.37;88.59;100691.03;5070051;28;20115;-57
2022/09/26 02:07:35;;;;;;;10.40;4.70;;;;;;;10.38;88.95;100686.53;5076277;28;20029;-57
2022/09/26 02:10:08;;;;;;;13.77;4.45;;;;;;;10.37;88.25;100685.72;5074205;28;20032;-57
2022/09/26 02:12:36;;;;;;;8.75;4.50;;;;;;;10.39;88.11;100682.88;5085664;28;20043;-59
2022/09/26 02:15:10;;;;;;;12.27;4.60;;;;;;;10.38;88.02;100683.88;5079277;28;20035;-57
2022/09/26 02:17:42;;;;;;;12.40;4.53;;;;;;;10.38;88.08;100675.91;5069381;28;20525;-58
2022/09/26 02:20:18;;;;;;;9.95;4.40;;;;;;;10.38;87.70;100665.31;5081078;28;20032;-59
2022/09/26 02:22:43;;;;;;;9.27;4.30;;;;;;;10.39;87.33;100661.66;5079571;28;20112;-56
2022/09/26 02:25:10;;;;;;;8.93;4.20;;;;;;;10.38;87.33;100657.38;5067904;28;20111;-59
2022/09/26 02:27:36;;;;;;;8.32;4.25;;;;;;;10.36;86.36;100650.41;5077782;28;20597;-57
2022/09/26 02:30:02;;;;;;;9.80;4.15;;;;;;;10.36;86.76;100655.72;5068012;28;20056;-60
2022/09/26 02:32:30;;;;;;;9.18;4.13;;;;;;;10.32;86.56;100646.44;5077076;28;20047;-59
2022/09/26 02:34:57;;;;;;;11.77;4.07;;;;;;;10.36;86.55;100645.13;5081692;28;20031;-59
2022/09/26 02:37:24;;;;;;;8.82;4.00;;;;;;;10.33;86.73;100632.22;5081272;28;20454;-59
2022/09/26 02:39:51;;;;;;;10.38;4.20;;;;;;;10.34;86.72;100633.84;5070640;28;20110;-56
2022/09/26 02:42:22;;;;;;;9.13;4.10;;;;;;;10.33;86.47;100632.22;5094758;28;20497;-56
2022/09/26 02:45:16;;;;;;;7.90;3.90;;;;;;;10.36;85.87;100631.03;5077850;28;20073;-59
2022/09/26 02:48:06;;;;;;;8.00;4.00;;;;;;;10.35;85.80;100632.84;5078656;28;20073;-56
2022/09/26 02:50:59;;;;;;;9.60;3.90;;;;;;;10.36;86.45;100626.56;5073210;28;20031;-56
2022/09/26 02:53:46;;;;;;;7.90;3.60;;;;;;;10.35;86.32;100619.59;5037828;28;20036;-58
2022/09/26 02:56:44;;;;;;;6.53;3.80;;;;;;;10.35;85.82;100613.47;5067953;28;20064;-58
2022/09/26 02:59:20;;;;;;;10.02;3.50;;;;;;;10.30;85.30;100608.66;5071030;28;20040;-56
2022/09/26 03:02:10;;;;;;;10.25;3.60;;;;;;;10.32;84.91;100604.03;5082950;28;20027;-58
2022/09/26 03:04:59;;;;;;;9.27;4.00;;;;;;;10.31;85.64;100602.38;5067196;28;20361;-57
2022/09/26 03:07:34;;;;;;;9.55;3.60;;;;;;;10.30;84.59;100595.41;5078291;28;20048;-57
2022/09/26 03:10:02;;;;;;;7.80;3.53;;;;;;;10.29;84.88;100595.56;5081301;28;20142;-59
2022/09/26 03:12:30;;;;;;;10.07;3.75;;;;;;;10.31;85.33;100594.41;5075583;28;20028;-57
2022/09/26 03:14:58;;;;;;;6.43;3.33;;;;;;;10.31;83.97;100586.47;5073618;28;20478;-59
2022/09/26 03:17:25;;;;;;;7.88;3.45;;;;;;;10.34;84.29;100590.59;5085422;28;20028;-56
2022/09/26 03:20:01;;;;;;;9.32;3.80;;;;;;;10.29;85.54;100577.88;5080034;28;20028;-57
2022/09/26 03:22:27;;;;;;;9.50;3.50;;;;;;;10.33;84.61;100571.25;5085934;28;20036;-56
2022/09/26 03:24:52;;;;;;;7.22;3.42;;;;;;;10.29;84.13;100572.56;5070753;28;20040;-57
2022/09/26 03:27:19;;;;;;;7.70;3.40;;;;;;;10.31;83.86;100565.25;5079089;28;20067;-56
2022/09/26 03:29:44;;;;;;;6.25;3.60;;;;;;;10.36;83.07;100562.94;5075323;28;20024;-56
2022/09/26 03:32:09;;;;;;;9.60;3.47;;;;;;;10.36;83.50;100557.66;5084363;28;20506;-56
2022/09/26 03:34:38;;;;;;;7.90;3.65;;;;;;;10.31;84.69;100554.66;5071083;28;20082;-59
2022/09/26 03:37:04;;;;;;;7.80;3.45;;;;;;;10.29;84.53;100554.00;5076270;28;20062;-55
2022/09/26 03:39:29;;;;;;;8.95;3.30;;;;;;;10.29;83.93;100550.53;5071743;28;20036;-58
2022/09/26 03:41:57;;;;;;;9.05;3.55;;;;;;;10.31;84.48;100532.66;5092117;28;20364;-58
2022/09/26 03:44:23;;;;;;;10.15;3.78;;;;;;;10.28;85.52;100525.03;5076032;28;20050;-56
2022/09/26 03:46:48;;;;;;;6.80;3.53;;;;;;;10.28;85.42;100528.50;5069141;28;20723;-56
2022/09/26 03:49:14;;;;;;;8.15;3.50;;;;;;;10.27;85.13;100532.13;5072719;28;20119;-56
2022/09/26 03:51:39;;;;;;;6.80;3.40;;;;;;;10.24;85.59;100529.81;5081517;28;20483;-57
2022/09/26 03:54:05;;;;;;;10.13;3.50;;;;;;;10.19;86.50;100516.25;5070710;28;20425;-57
2022/09/26 03:56:30;;;;;;;9.02;3.42;;;;;;;10.21;85.52;100516.91;5071124;28;20542;-58
2022/09/26 03:58:56;;;;;;;8.25;3.33;;;;;;;10.22;85.94;100507.97;5075472;28;20117;-56
2022/09/26 04:01:22;;;;;;;7.82;3.60;;;;;;;10.16;86.50;100503.34;5068907;28;20565;-57
2022/09/26 04:03:48;;;;;;;7.07;3.80;;;;;;;10.17;87.96;100505.81;5066959;28;20036;-55
2022/09/26 04:06:18;;;;;;;7.93;3.40;;;;;;;10.19;86.67;100497.69;5078355;28;20558;-58
2022/09/26 04:08:45;;;;;;;7.78;3.42;;;;;;;10.14;86.76;100489.41;5073762;28;20041;-56
2022/09/26 04:11:13;;;;;;;8.88;3.60;;;;;;;10.09;87.99;100490.78;5070034;28;20436;-56
2022/09/26 04:13:39;;;;;;;10.70;3.60;;;;;;;10.07;88.54;100479.50;5062651;28;20480;-56
2022/09/26 04:16:06;;;;;;;6.10;3.53;;;;;;;10.07;88.71;100474.19;5066086;28;20027;-56
2022/09/26 04:18:33;;;;;;;11.15;4.00;;;;;;;10.03;88.17;100461.44;5059128;28;20034;-60
2022/09/26 04:21:01;;;;;;;6.57;3.65;;;;;;;10.04;88.37;100457.81;5069155;28;20975;-59
2022/09/26 04:23:29;;;;;;;8.25;3.60;;;;;;;10.00;89.00;100457.31;5062709;28;20468;-56
2022/09/26 04:25:54;;;;;;;10.07;3.83;;;;;;;10.02;88.34;100446.56;5068582;28;20032;-59
2022/09/26 04:28:20;;;;;;;12.38;3.67;;;;;;;10.04;88.87;100448.06;5065235;28;20090;-56
2022/09/26 04:30:46;;;;;;;8.05;3.70;;;;;;;10.05;88.25;100439.09;5065874;28;20135;-56
2022/09/26 04:33:11;;;;;;;8.38;3.70;;;;;;;10.03;89.19;100435.81;5064977;28;20028;-57
2022/09/26 04:35:37;;;;;;;9.07;3.83;;;;;;;10.03;88.80;100434.97;5065006;28;20032;-59
2022/09/26 04:38:03;;;;;;;9.13;3.92;;;;;;;10.04;89.34;100432.16;5067748;28;20119;-57
2022/09/26 04:40:30;;;;;;;12.25;3.90;;;;;;;10.03;88.55;100425.22;5066859;28;20231;-56
2022/09/26 04:42:55;;;;;;;6.97;3.47;;;;;;;10.03;88.58;100411.97;5055608;28;20024;-56
2022/09/26 04:45:21;;;;;;;9.30;3.60;;;;;;;10.03;89.69;100405.81;5066264;28;20368;-58
2022/09/26 04:47:46;;;;;;;9.48;3.50;;;;;;;10.01;88.65;100395.38;5065028;28;20139;-56
2022/09/26 04:50:11;;;;;;;9.23;3.80;;;;;;;10.00;88.65;100388.44;5061308;28;20032;-56
2022/09/26 04:52:37;;;;;;;6.88;3.55;;;;;;;10.02;89.29;100383.78;5076930;28;20135;-57
2022/09/26 04:55:02;;;;;;;8.52;3.63;;;;;;;9.99;88.66;100376.19;5060105;28;20039;-56
2022/09/26 04:57:28;;;;;;;9.05;3.65;;;;;;;10.00;89.21;100377.00;5061118;28;20123;-59
2022/09/26 04:59:53;;;;;;;6.47;3.53;;;;;;;9.99;89.17;100368.25;5066478;28;20035;-58
2022/09/26 05:02:19;;;;;;;9.25;3.67;;;;;;;9.98;89.17;100358.66;5069896;28;20031;-56
2022/09/26 05:04:47;;;;;;;9.90;3.50;;;;;;;9.95;89.48;100365.13;5067680;28;20032;-56
2022/09/26 05:07:13;;;;;;;9.07;3.75;;;;;;;9.95;89.48;100353.69;5074285;28;20495;-56
2022/09/26 05:09:38;;;;;;;11.43;3.70;;;;;;;9.94;88.98;100347.56;5068153;28;20028;-57
2022/09/26 05:12:03;;;;;;;9.70;3.80;;;;;;;9.94;90.00;100346.75;5081233;28;20032;-57
2022/09/26 05:14:29;;;;;;;10.18;3.80;;;;;;;9.93;89.50;100335.31;5079481;28;20448;-57
2022/09/26 05:16:54;;;;;;;11.95;4.18;;;;;;;9.93;90.38;100323.91;5069459;28;20349;-60
2022/09/26 05:19:20;;;;;;;10.02;4.32;;;;;;;9.90;89.97;100324.22;5076721;28;20073;-57
2022/09/26 05:21:45;;;;;;;8.00;3.80;;;;;;;9.88;90.90;100320.94;5075747;28;20074;-55
2022/09/26 05:26:54;;;;;;;8.15;3.72;;;;;;;9.87;90.40;100314.81;5064363;28;20205;-58
2022/09/26 05:29:20;;;;;;;10.75;3.97;;;;;;;9.87;91.03;100314.00;5065202;28;20123;-56
2022/09/26 05:31:46;;;;;;;7.88;4.03;;;;;;;9.86;91.32;100307.03;5082378;28;20046;-58
2022/09/26 05:34:12;;;;;;;9.27;4.18;;;;;;;9.87;90.55;100308.69;5070711;28;20028;-58
2022/09/26 05:36:39;;;;;;;9.23;4.53;;;;;;;9.87;91.28;100308.69;5078372;28;20116;-55
2022/09/26 05:40:55;;;;;;;8.30;4.05;;;;;;;9.86;90.59;100301.75;5074493;28;20047;-58
2022/09/26 05:41:53;;;;;;;9.32;4.60;;;;;;;9.86;91.42;100307.03;5088672;28;20540;-58
2022/09/26 05:44:18;;;;;;;11.27;4.43;;;;;;;9.86;91.22;100301.75;5063172;28;20572;-57
2022/09/26 05:46:44;;;;;;;12.13;4.32;;;;;;;9.87;90.64;100303.41;5070801;28;20040;-57
2022/09/26 05:49:10;;;;;;;12.43;4.90;;;;;;;9.89;90.29;100306.69;5073055;28;20043;-56
2022/09/26 05:51:36;;;;;;;11.95;4.50;;;;;;;9.88;90.47;100305.88;5078398;28;20135;-56
2022/09/26 05:54:03;;;;;;;11.52;4.57;;;;;;;9.89;90.67;100296.09;5061190;28;20937;-58
2022/09/26 05:56:28;;;;;;;10.77;4.70;;;;;;;9.89;90.94;100306.69;5070212;28;20029;-56
2022/09/26 05:58:54;;;;;;;9.85;4.63;;;;;;;9.89;90.92;100301.41;5072858;28;20039;-57
2022/09/26 06:01:19;;;;;;;12.40;4.53;;;;;;;9.83;91.36;100282.53;5081845;28;20036;-57
2022/09/26 06:03:46;;;;;;;10.40;4.72;;;;;;;9.87;91.81;100287.50;5063882;28;20044;-57
2022/09/26 06:06:13;;;;;;;11.63;4.78;;;;;;;9.83;91.53;100284.38;5059152;28;20121;-56
2022/09/26 06:08:39;;;;;;;15.48;5.80;;;;;;;9.86;92.57;100275.28;5058983;28;20028;-57
2022/09/26 06:11:07;;;;;;;11.55;4.85;;;;;;;9.78;92.52;100257.56;5068874;28;20516;-57
2022/09/26 06:13:35;;;;;;;12.15;4.40;;;;;;;9.85;91.58;100263.00;5068147;28;20453;-57
2022/09/26 06:16:06;;;;;;;10.23;4.20;;;;;;;9.80;92.43;100256.41;5064585;28;20063;-57
2022/09/26 06:18:35;;;;;;;11.10;4.93;;;;;;;9.81;91.97;100247.47;5075916;28;20548;-56
2022/09/26 06:21:05;;;;;;;9.80;4.43;;;;;;;9.83;92.26;100240.16;5075793;28;20042;-57
2022/09/26 06:23:33;;;;;;;10.25;4.40;;;;;;;9.83;92.31;100226.13;5071290;28;20582;-56
2022/09/26 06:25:59;;;;;;;8.50;4.35;;;;;;;9.83;91.80;100215.53;5059865;28;20534;-57
2022/09/26 06:28:25;;;;;;;12.90;4.07;;;;;;;9.82;91.53;100214.69;5073129;28;20035;-56
2022/09/26 06:30:52;;;;;;;10.07;4.20;;;;;;;9.84;91.78;100209.22;5079585;28;20039;-58
2022/09/26 06:33:17;;;;;;;8.60;3.67;;;;;;;9.90;91.40;100207.69;5070573;28;20033;-57
2022/09/26 06:35:42;;;;;;;8.57;4.00;;;;;;;9.89;91.44;100204.25;5063482;28;20040;-57
2022/09/26 06:38:08;;;;;;;7.07;3.80;;;;;;;9.90;90.87;100194.47;5072796;28;20116;-57
2022/09/26 06:40:34;;;;;;;7.10;3.67;;;;;;;9.91;91.59;100194.28;5063791;28;20033;-56
2022/09/26 06:42:59;;;;;;;7.68;3.80;;;;;;;9.94;90.97;100193.13;5067050;28;20472;-56
2022/09/26 06:45:25;;;;;;;9.20;3.60;;;;;;;9.95;90.41;100185.00;5060934;28;20537;-57
2022/09/26 06:47:51;;;;;;;7.72;3.50;;;;;;;10.01;90.33;100172.88;5082983;28;20364;-57
2022/09/26 06:50:16;;;;;;;5.90;3.42;;;;;;;10.01;91.08;100166.78;5084656;28;20479;-59
2022/09/26 06:52:42;;;;;;;6.90;3.35;;;;;;;10.00;91.61;100160.66;5089597;28;20039;-57
2022/09/26 06:55:08;;;;;;;5.40;3.30;;;;;;;10.04;91.21;100150.53;5077402;28;20060;-56
2022/09/26 06:57:41;;;;;;;6.65;3.20;;;;;;;10.03;90.87;100143.56;5066321;28;20078;-57
2022/09/26 07:00:08;;;;;;;;;;;;;;;10.11;90.55;100146.16;5065925;28;20476;-58
2022/09/26 07:02:33;;;;;;;8.32;3.38;;;;;;;10.06;90.78;100154.66;5083119;28;20366;-56
2022/09/26 07:05:01;;;;;;;8.32;3.28;;;;;;;10.09;91.08;100149.00;5070578;28;20123;-56
2022/09/26 07:07:26;;;;;;;6.78;3.38;;;;;;;10.12;91.28;100131.09;5077799;28;20479;-57
2022/09/26 07:09:52;;;;;;;6.43;3.28;;;;;;;10.16;90.56;100130.56;5062252;28;20040;-56
2022/09/26 07:12:17;;;;;;;7.43;3.42;;;;;;;10.17;90.83;100132.22;5073194;28;20025;-57
2022/09/26 07:14:42;;;;;;;6.18;3.20;;;;;;;10.21;89.71;100119.44;5065890;28;20040;-58
2022/09/26 07:17:14;;;;;;;9.27;3.30;;;;;;;10.21;89.63;100114.13;5074685;28;20512;-56
2022/09/26 07:19:39;;;;;;;6.57;3.20;;;;;;;10.22;90.40;100110.50;5079681;28;20499;-58
2022/09/26 07:22:06;;;;;;;7.03;3.08;;;;;;;10.23;89.60;100104.19;5073918;28;20071;-58
2022/09/26 07:24:31;;;;;;;6.70;3.13;;;;;;;10.22;89.64;100105.22;5077208;28;20031;-57
2022/09/26 07:26:56;;;;;;;4.80;3.05;;;;;;;10.23;90.41;100109.50;5079349;28;20055;-58
2022/09/26 07:29:22;;;;;;;9.27;3.30;;;;;;;10.24;90.08;100108.50;5080674;28;20036;-56
2022/09/26 07:31:47;;;;;;;6.80;3.10;;;;;;;10.25;89.49;100104.84;5090484;28;20065;-60
2022/09/26 07:34:12;;;;;;;9.75;3.47;;;;;;;10.28;89.90;100103.66;5073436;28;20410;-56
2022/09/26 07:36:39;;;;;;;5.53;3.10;;;;;;;10.28;90.28;100101.84;5078031;28;20372;-57
2022/09/26 07:39:04;;;;;;;5.00;3.10;;;;;;;10.29;89.32;100095.53;5077464;28;20036;-56
2022/09/26 07:41:30;;;;;;;7.75;3.30;;;;;;;10.33;89.78;100107.44;5094755;28;20031;-57
2022/09/26 07:43:56;;;;;;;8.23;3.10;;;;;;;10.34;89.62;100095.84;5079743;28;20032;-59
2022/09/26 07:51:53;;;;;;;5.70;3.00;;;;;;;10.39;89.56;100083.84;5080595;28;20128;-59
2022/09/26 07:54:19;;;;;;;7.57;3.35;;;;;;;10.38;90.44;100083.06;5062427;28;20028;-58
2022/09/26 07:56:44;;;;;;;5.60;3.30;;;;;;;10.40;89.71;100082.88;5064730;28;20553;-57
2022/09/26 07:59:09;;;;;;;10.02;3.45;;;;;;;10.45;90.03;100083.16;5080669;28;20506;-57
2022/09/26 08:01:37;;;;;;;10.77;3.40;;;;;;;10.47;89.62;100075.88;5078560;28;20372;-56
2022/09/26 08:04:02;;;;;;;6.75;3.25;;;;;;;10.50;90.72;100072.84;5062498;28;20470;-56
2022/09/26 08:06:32;;;;;;;4.90;3.00;;;;;;;10.51;90.36;100066.53;5081355;28;20063;-57
2022/09/26 08:08:57;;;;;;;6.93;3.13;;;;;;;10.55;90.61;100067.03;5078632;28;20429;-56
2022/09/26 08:11:23;;;;;;;7.20;3.10;;;;;;;10.55;90.68;100062.53;5081694;28;20032;-58
2022/09/26 08:13:49;;;;;;;5.78;3.50;;;;;;;10.65;89.35;100056.97;5061079;28;20033;-58
2022/09/26 08:16:19;;;;;;;9.57;3.20;;;;;;;10.61;90.14;100055.72;5073277;28;20055;-56
2022/09/26 08:18:45;;;;;;;6.35;3.25;;;;;;;10.62;90.10;100050.19;5071416;28;20044;-56
2022/09/26 08:21:10;;;;;;;8.27;3.13;;;;;;;10.62;89.85;100052.84;5080674;28;20040;-56
2022/09/26 08:23:36;;;;;;;8.05;3.53;;;;;;;10.63;89.75;100048.38;5060983;28;20029;-58
2022/09/26 08:26:02;;;;;;;7.47;3.20;;;;;;;10.62;90.12;100058.16;5077114;28;20063;-56
2022/09/26 08:28:28;;;;;;;6.82;3.10;;;;;;;10.63;89.95;100053.69;5077879;28;20031;-59
2022/09/26 08:30:56;;;;;;;9.73;3.20;;;;;;;10.60;90.15;100046.91;5073885;28;20510;-59
2022/09/26 08:33:23;;;;;;;8.15;3.35;;;;;;;10.62;89.78;100052.84;5065735;28;20039;-56
2022/09/26 08:35:49;;;;;;;9.95;3.47;;;;;;;10.64;90.63;100047.38;5062293;28;20051;-58
2022/09/26 08:38:14;;;;;;;7.30;3.28;;;;;;;10.63;90.61;100054.53;5072250;28;20028;-57
2022/09/26 08:41:02;;;;;;;5.00;2.90;;;;;;;10.73;89.77;100037.50;5083988;28;20128;-57
2022/09/26 08:43:51;;;;;;;9.60;3.40;;;;;;;10.70;90.43;100033.41;5070800;28;20078;-57
2022/09/26 08:46:51;;;;;;;6.78;3.45;;;;;;;10.73;90.74;100038.34;5060935;28;20123;-57
2022/09/26 08:49:24;;;;;;;7.38;2.95;;;;;;;10.74;90.60;100033.84;5060656;28;20499;-56
2022/09/26 08:51:52;;;;;;;9.68;3.33;;;;;;;10.78;90.12;100035.13;5077645;28;20048;-57
2022/09/26 08:54:40;;;;;;;8.93;3.40;;;;;;;10.82;90.22;100036.44;5078948;28;20475;-58
2022/09/26 08:57:22;;;;;;;7.72;3.10;;;;;;;10.81;90.50;100018.84;5067988;28;20035;-59
2022/09/26 08:59:48;;;;;;;10.13;3.47;;;;;;;10.85;90.21;100029.94;5065375;28;20082;-57
2022/09/26 09:02:32;;;;;;;10.05;3.15;;;;;;;10.87;90.11;100023.41;5081173;28;20491;-57
2022/09/26 09:05:16;;;;;;;5.68;3.10;;;;;;;10.87;90.46;100017.31;5071636;28;20852;-57
2022/09/26 09:07:46;;;;;;;10.32;3.50;;;;;;;10.93;89.66;100032.47;5069125;28;20109;-58
2022/09/26 09:10:16;;;;;;;10.57;3.45;;;;;;;10.94;90.45;100022.69;5060531;28;20036;-56
2022/09/26 09:12:44;;;;;;;8.80;3.33;;;;;;;10.96;91.36;100018.84;5075513;28;20023;-57
2022/09/26 09:15:25;;;;;;;8.23;3.22;;;;;;;10.96;91.44;100018.03;5066068;28;20123;-57
2022/09/26 09:17:58;;;;;;;10.00;3.47;;;;;;;10.98;91.60;100018.66;5059502;28;20036;-56
2022/09/26 09:20:26;;;;;;;8.80;3.88;;;;;;;10.98;92.83;100013.34;5067709;28;20034;-57
2022/09/26 09:23:11;;;;;;;7.75;3.50;;;;;;;11.01;93.99;99999.75;5071070;28;20039;-57
2022/09/26 09:25:48;;;;;;;9.93;3.70;;;;;;;11.01;93.83;99995.25;5062208;28;20040;-57
2022/09/26 09:28:35;;;;;;;9.25;3.63;;;;;;;11.01;94.95;99991.78;5076730;28;20036;-57
2022/09/26 09:31:08;;;;;;;12.10;3.60;;;;;;;10.97;95.16;99990.50;5086673;28;20030;-56
2022/09/26 09:33:43;;;;;;;9.07;3.72;;;;;;;10.97;95.95;99979.88;5079969;28;20081;-57
2022/09/26 09:36:16;;;;;;;10.82;3.80;;;;;;;10.92;96.44;99967.19;5064609;28;20028;-58
2022/09/26 09:38:47;;;;;;;11.68;4.03;;;;;;;10.94;96.38;99969.63;5076108;28;20043;-58
2022/09/26 09:41:23;;;;;;;10.65;3.70;;;;;;;10.95;96.73;99976.59;5080143;28;20039;-59
2022/09/26 09:43:59;;;;;;;8.82;3.83;;;;;;;10.90;97.74;99959.41;5068239;28;20499;-57
2022/09/26 09:46:33;;;;;;;8.40;3.75;;;;;;;10.92;98.38;99955.75;5077751;28;20115;-57
2022/09/26 09:49:18;;;;;;;8.73;4.00;;;;;;;10.95;98.53;99950.06;5078131;28;20064;-58
2022/09/26 09:52:20;;;;;;;9.07;3.85;;;;;;;10.97;98.75;99948.88;5090215;28;20046;-59
2022/09/26 09:55:11;;;;;;;11.77;4.00;;;;;;;10.98;98.61;99924.00;5069705;28;20101;-56
2022/09/26 09:57:55;;;;;;;7.82;3.70;;;;;;;10.96;99.11;99933.94;5068619;28;20055;-57
2022/09/26 10:00:22;;;;;;;7.20;3.60;;;;;;;10.97;99.28;99916.22;5070895;28;20395;-59
2022/09/26 10:03:23;;;;;;;10.52;3.97;;;;;;;11.02;100.00;99925.25;5069212;28;20023;-57
2022/09/26 10:05:52;;;;;;;11.68;4.47;;;;;;;11.02;99.98;99906.69;5074807;28;20039;-63
2022/09/26 10:08:28;;;;;;;11.75;4.30;;;;;;;11.13;100.00;99909.84;5066476;28;20032;-58
2022/09/26 10:11:06;;;;;;;8.40;4.20;;;;;;;11.12;100.00;99906.41;5064000;28;20035;-61
2022/09/26 10:13:32;;;;;;;10.40;4.22;;;;;;;11.14;100.00;99904.38;5068226;28;20093;-58
2022/09/26 10:16:03;;;;;;;9.27;4.15;;;;;;;11.15;99.98;99903.34;5061164;28;20028;-58
2022/09/26 10:18:30;;;;;;;8.43;3.90;;;;;;;11.16;99.62;99897.03;5077911;28;20024;-57
2022/09/26 10:20:59;;;;;;;7.70;4.38;;;;;;;11.15;100.00;99891.94;5083041;28;20567;-56
2022/09/26 10:23:30;;;;;;;11.43;4.30;;;;;;;11.21;100.00;99887.69;5083761;28;20035;-56
2022/09/26 10:26:04;;;;;;;7.20;4.20;;;;;;;11.20;100.00;99888.72;5071257;28;20055;-58
2022/09/26 10:28:42;;;;;;;9.25;4.13;;;;;;;11.17;100.00;99880.09;5066032;28;20024;-56
2022/09/26 10:31:09;;;;;;;10.63;4.15;;;;;;;11.20;100.00;99886.06;5070213;28;20044;-58
2022/09/26 10:33:37;;;;;;;11.77;4.38;;;;;;;11.16;100.00;99877.66;5064006;28;20036;-61
2022/09/26 10:36:18;;;;;;;10.75;4.10;;;;;;;11.24;98.97;99874.88;5064161;28;20036;-61
2022/09/26 10:41:40;;;;;;;12.10;4.25;;;;;;;11.11;100.00;99870.22;5071531;28;20039;-56
2022/09/26 10:44:20;;;;;;;9.32;4.07;;;;;;;11.12;100.00;99865.75;5067501;28;20102;-56
2022/09/26 10:46:48;;;;;;;9.23;4.13;;;;;;;11.10;100.00;99863.28;5060018;28;20133;-57
2022/09/26 10:49:14;;;;;;;9.73;4.10;;;;;;;11.12;100.00;99861.28;5061837;28;20032;-56
2022/09/26 10:51:44;;;;;;;8.50;4.60;;;;;;;11.08;100.00;99862.66;5063038;28;20036;-50
2022/09/26 10:54:21;;;;;;;10.40;4.40;;;;;;;11.10;100.00;99852.69;5064288;28;20048;-48
2022/09/26 10:56:49;;;;;;;10.10;4.57;;;;;;;11.10;100.00;99852.69;5066782;28;20028;-54
2022/09/26 10:59:17;;;;;;;9.88;4.50;;;;;;;11.08;100.00;99852.06;5066482;28;20545;-53
2022/09/26 11:01:47;;;;;;;11.35;4.80;;;;;;;11.11;100.00;99849.00;5066285;28;20079;-50
2022/09/26 11:07:09;;;;;;;10.70;4.72;;;;;;;11.05;100.00;99844.47;5066261;28;20117;-57
2022/09/26 11:09:37;;;;;;;11.80;4.78;;;;;;;11.05;100.00;99844.47;5069357;28;20031;-56
2022/09/26 11:12:32;;;;;;;8.35;4.47;;;;;;;11.10;100.00;99839.41;5075288;28;20020;-56
2022/09/26 11:15:07;;;;;;;9.43;4.53;;;;;;;11.04;100.00;99837.53;5068281;28;20103;-57
2022/09/26 11:17:46;;;;;;;11.30;4.68;;;;;;;11.09;100.00;99840.44;5065829;28;20395;-56
2022/09/26 11:20:26;;;;;;;10.00;4.45;;;;;;;11.10;100.00;99836.75;5065309;28;20488;-57
2022/09/26 11:23:11;;;;;;;10.43;4.70;;;;;;;11.02;100.00;99813.03;5063994;28;20487;-56
2022/09/26 11:25:53;;;;;;;8.38;4.70;;;;;;;11.11;100.00;99838.41;5069058;28;20123;-58
2022/09/26 11:28:43;;;;;;;10.73;4.53;;;;;;;11.00;100.00;99831.78;5066084;28;20051;-56
2022/09/26 11:31:39;;;;;;;10.38;4.60;;;;;;;11.07;100.00;99821.22;5067844;28;20036;-60
2022/09/26 11:34:12;;;;;;;13.15;4.78;;;;;;;10.98;100.00;99817.06;5065120;28;20437;-60
2022/09/26 11:37:00;;;;;;;11.70;5.07;;;;;;;10.97;100.00;99823.38;5069057;28;20067;-61
2022/09/26 11:39:49;;;;;;;7.57;4.40;;;;;;;10.97;100.00;99815.41;5067647;28;20389;-61
2022/09/26 11:42:54;;;;;;;9.90;4.55;;;;;;;10.96;100.00;99814.59;5067329;28;20094;-59
2022/09/26 11:46:02;;;;;;;11.77;4.57;;;;;;;10.97;100.00;99820.72;5069165;28;20135;-59
2022/09/26 11:48:49;;;;;;;8.18;4.60;;;;;;;11.00;100.00;99810.56;5064846;28;20051;-60
2022/09/26 11:51:42;;;;;;;9.77;4.55;;;;;;;10.99;100.00;99810.72;5067987;28;20115;-60
2022/09/26 11:54:28;;;;;;;7.25;4.40;;;;;;;11.02;100.00;99811.16;5065549;28;20484;-60
2022/09/26 11:57:33;;;;;;;7.35;4.07;;;;;;;11.09;100.00;99811.25;5068202;28;20033;-59
2022/09/26 12:00:26;;;;;;;8.95;4.30;;;;;;;11.05;100.00;99802.00;5064904;28;20024;-60